BAW45V EGLL-EHAM
Flight info
| Callsign | BAW45V |
|---|---|
| Flight time | 0h 41m |
| Altitude | 27000 |
| Route | BPK Q295 BRAIN M197 REDFA |
| Aircraft | A320/M-SDE3FGHIRWY/LB1 |
Departure
| Time | 2026-05-06 14:14 |
|---|---|
| Airport | London Heathrow Airport (EGLL) |
Arrival
| Time | 2026-05-06 14:55 |
|---|---|
| Airport | Amsterdam Airport Schiphol (EHAM) |
| Time | Latitude | Longitude | Altitude | Speed | Heading |
|---|---|---|---|---|---|
| 2026-05-06 13:36 | 51.47406 | -0.48830 | 85 ft | 0 kts | 180° |
| 2026-05-06 14:01 | 51.47416 | -0.48830 | 89 ft | 4 kts | 178° |
| 2026-05-06 14:01 | 51.47443 | -0.48833 | 88 ft | 4 kts | 171° |
| 2026-05-06 14:01 | 51.47468 | -0.48844 | 89 ft | 4 kts | 153° |
| 2026-05-06 14:01 | 51.47481 | -0.48856 | 86 ft | 4 kts | 128° |
| 2026-05-06 14:02 | 51.47487 | -0.48875 | 87 ft | 0 kts | 94° |
| 2026-05-06 14:05 | 51.47488 | -0.48872 | 87 ft | 1 kts | 87° |
| 2026-05-06 14:06 | 51.47490 | -0.48864 | 88 ft | 0 kts | 71° |
| 2026-05-06 14:06 | 51.47488 | -0.48861 | 86 ft | 1 kts | 97° |
| 2026-05-06 14:06 | 51.47488 | -0.48859 | 86 ft | 0 kts | 99° |
| 2026-05-06 14:07 | 51.47486 | -0.48830 | 86 ft | 5 kts | 96° |
| 2026-05-06 14:07 | 51.47486 | -0.48752 | 87 ft | 8 kts | 85° |
| 2026-05-06 14:07 | 51.47488 | -0.48646 | 85 ft | 11 kts | 90° |
| 2026-05-06 14:08 | 51.47484 | -0.48514 | 88 ft | 13 kts | 108° |
| 2026-05-06 14:08 | 51.47398 | -0.48477 | 85 ft | 15 kts | 181° |
| 2026-05-06 14:08 | 51.47298 | -0.48473 | 85 ft | 13 kts | 163° |
| 2026-05-06 14:08 | 51.47239 | -0.48360 | 86 ft | 14 kts | 159° |
| 2026-05-06 14:09 | 51.47133 | -0.48357 | 86 ft | 16 kts | 178° |
| 2026-05-06 14:09 | 51.47014 | -0.48353 | 86 ft | 18 kts | 180° |
| 2026-05-06 14:09 | 51.46894 | -0.48354 | 85 ft | 12 kts | 180° |
| 2026-05-06 14:09 | 51.46803 | -0.48356 | 85 ft | 14 kts | 180° |
| 2026-05-06 14:10 | 51.46732 | -0.48444 | 85 ft | 15 kts | 234° |
| 2026-05-06 14:10 | 51.46638 | -0.48469 | 89 ft | 12 kts | 180° |
| 2026-05-06 14:10 | 51.46606 | -0.48469 | 89 ft | 0 kts | 180° |
| 2026-05-06 14:11 | 51.46581 | -0.48469 | 89 ft | 7 kts | 180° |
| 2026-05-06 14:11 | 51.46520 | -0.48468 | 88 ft | 11 kts | 179° |
| 2026-05-06 14:11 | 51.46477 | -0.48420 | 90 ft | 7 kts | 93° |
| 2026-05-06 14:11 | 51.46479 | -0.48336 | 88 ft | 5 kts | 89° |
| 2026-05-06 14:12 | 51.46479 | -0.48335 | 88 ft | 0 kts | 89° |
| 2026-05-06 14:12 | 51.46479 | -0.48329 | 88 ft | 2 kts | 90° |
| 2026-05-06 14:12 | 51.46479 | -0.48306 | 88 ft | 16 kts | 91° |
| 2026-05-06 14:13 | 51.46483 | -0.47699 | 83 ft | 88 kts | 89° |
| 2026-05-06 14:13 | 51.46486 | -0.46417 | 91 ft | 139 kts | 89° |
| 2026-05-06 14:13 | 51.46495 | -0.44629 | 128 ft | 177 kts | 85° |
| 2026-05-06 14:13 | 51.46513 | -0.42577 | 517 ft | 189 kts | 83° |
| 2026-05-06 14:14 | 51.46820 | -0.40467 | 996 ft | 203 kts | 57° |
| 2026-05-06 14:14 | 51.47685 | -0.38619 | 1397 ft | 217 kts | 47° |
| 2026-05-06 14:14 | 51.48744 | -0.36719 | 1853 ft | 238 kts | 45° |
| 2026-05-06 14:14 | 51.49881 | -0.34709 | 2683 ft | 246 kts | 46° |
| 2026-05-06 14:15 | 51.51025 | -0.32644 | 3649 ft | 249 kts | 47° |
| 2026-05-06 14:15 | 51.52112 | -0.30437 | 4560 ft | 256 kts | 58° |
| 2026-05-06 14:15 | 51.52788 | -0.27754 | 5463 ft | 262 kts | 67° |
| 2026-05-06 14:15 | 51.53398 | -0.24956 | 5873 ft | 267 kts | 67° |
| 2026-05-06 14:16 | 51.53996 | -0.22127 | 5989 ft | 267 kts | 67° |
| 2026-05-06 14:16 | 51.54904 | -0.19646 | 6008 ft | 259 kts | 39° |
| 2026-05-06 14:16 | 51.56481 | -0.18387 | 6010 ft | 255 kts | 12° |
| 2026-05-06 14:16 | 51.58230 | -0.17840 | 6061 ft | 258 kts | 14° |
| 2026-05-06 14:17 | 51.59967 | -0.17167 | 6052 ft | 257 kts | 12° |
| 2026-05-06 14:17 | 51.61702 | -0.16524 | 6050 ft | 256 kts | 13° |
| 2026-05-06 14:17 | 51.63439 | -0.15839 | 6053 ft | 258 kts | 14° |
| 2026-05-06 14:17 | 51.65173 | -0.15114 | 6054 ft | 257 kts | 14° |
| 2026-05-06 14:18 | 51.66895 | -0.14363 | 6057 ft | 255 kts | 14° |
| 2026-05-06 14:18 | 51.68609 | -0.13596 | 6056 ft | 257 kts | 15° |
| 2026-05-06 14:18 | 51.70330 | -0.12813 | 6056 ft | 257 kts | 15° |
| 2026-05-06 14:18 | 51.72045 | -0.12012 | 6053 ft | 255 kts | 18° |
| 2026-05-06 14:19 | 51.73131 | -0.11182 | 6052 ft | 258 kts | 32° |
| 2026-05-06 14:19 | 51.74438 | -0.09256 | 6052 ft | 262 kts | 51° |
| 2026-05-06 14:19 | 51.75247 | -0.06584 | 6599 ft | 270 kts | 73° |
| 2026-05-06 14:19 | 51.75570 | -0.03574 | 7472 ft | 274 kts | 78° |
| 2026-05-06 14:20 | 51.75836 | -0.00500 | 8281 ft | 279 kts | 81° |
| 2026-05-06 14:20 | 51.76098 | 0.02637 | 9030 ft | 285 kts | 81° |
| 2026-05-06 14:20 | 51.76363 | 0.05843 | 9797 ft | 291 kts | 81° |
| 2026-05-06 14:20 | 51.76634 | 0.09140 | 10333 ft | 305 kts | 80° |
| 2026-05-06 14:21 | 51.76922 | 0.12652 | 10550 ft | 328 kts | 81° |
| 2026-05-06 14:21 | 51.77230 | 0.16407 | 10924 ft | 343 kts | 80° |
| 2026-05-06 14:21 | 51.77542 | 0.20251 | 11587 ft | 347 kts | 81° |
| 2026-05-06 14:21 | 51.77857 | 0.24141 | 12251 ft | 352 kts | 81° |
| 2026-05-06 14:22 | 51.78179 | 0.28098 | 12908 ft | 357 kts | 80° |
| 2026-05-06 14:22 | 51.78502 | 0.32093 | 13629 ft | 360 kts | 81° |
| 2026-05-06 14:22 | 51.78826 | 0.36133 | 14224 ft | 365 kts | 81° |
| 2026-05-06 14:22 | 51.79153 | 0.40238 | 14835 ft | 369 kts | 82° |
| 2026-05-06 14:23 | 51.79477 | 0.44302 | 15451 ft | 372 kts | 81° |
| 2026-05-06 14:23 | 51.79810 | 0.48470 | 16001 ft | 377 kts | 82° |
| 2026-05-06 14:23 | 51.80144 | 0.52682 | 16611 ft | 379 kts | 82° |
| 2026-05-06 14:23 | 51.80473 | 0.56921 | 17219 ft | 382 kts | 82° |
| 2026-05-06 14:24 | 51.80803 | 0.61211 | 17809 ft | 386 kts | 82° |
| 2026-05-06 14:24 | 51.81178 | 0.65525 | 18378 ft | 390 kts | 78° |
| 2026-05-06 14:24 | 51.81818 | 0.69805 | 18876 ft | 394 kts | 75° |
| 2026-05-06 14:24 | 51.82487 | 0.74122 | 19436 ft | 397 kts | 75° |
| 2026-05-06 14:25 | 51.83161 | 0.78470 | 20016 ft | 400 kts | 75° |
| 2026-05-06 14:25 | 51.83844 | 0.82855 | 20551 ft | 404 kts | 75° |
| 2026-05-06 14:25 | 51.84591 | 0.87239 | 21114 ft | 406 kts | 73° |
| 2026-05-06 14:25 | 51.85396 | 0.91641 | 21623 ft | 410 kts | 72° |
| 2026-05-06 14:26 | 51.86230 | 0.96049 | 22182 ft | 412 kts | 72° |
| 2026-05-06 14:26 | 51.87071 | 1.00503 | 22733 ft | 414 kts | 73° |
| 2026-05-06 14:26 | 51.87906 | 1.04981 | 23278 ft | 417 kts | 73° |
| 2026-05-06 14:26 | 51.88734 | 1.09489 | 23743 ft | 420 kts | 73° |
| 2026-05-06 14:27 | 51.89559 | 1.14044 | 24165 ft | 422 kts | 73° |
| 2026-05-06 14:27 | 51.90379 | 1.18617 | 24585 ft | 424 kts | 73° |
| 2026-05-06 14:27 | 51.91198 | 1.23220 | 24910 ft | 427 kts | 74° |
| 2026-05-06 14:27 | 51.92015 | 1.27822 | 24972 ft | 423 kts | 74° |
| 2026-05-06 14:28 | 51.92829 | 1.32384 | 24968 ft | 421 kts | 73° |
| 2026-05-06 14:28 | 51.93642 | 1.36943 | 24969 ft | 420 kts | 73° |
| 2026-05-06 14:28 | 51.94450 | 1.41488 | 24971 ft | 420 kts | 74° |
| 2026-05-06 14:28 | 51.95244 | 1.45983 | 24969 ft | 420 kts | 74° |
| 2026-05-06 14:29 | 51.96046 | 1.50538 | 24972 ft | 421 kts | 74° |
| 2026-05-06 14:29 | 51.96848 | 1.55106 | 24972 ft | 422 kts | 74° |
| 2026-05-06 14:29 | 51.97652 | 1.59684 | 24969 ft | 422 kts | 74° |
| 2026-05-06 14:29 | 51.98453 | 1.64267 | 24972 ft | 422 kts | 74° |
| 2026-05-06 14:30 | 51.99254 | 1.68850 | 24972 ft | 422 kts | 75° |
| 2026-05-06 14:30 | 52.00020 | 1.73442 | 24973 ft | 422 kts | 76° |
| 2026-05-06 14:30 | 52.00749 | 1.78069 | 24971 ft | 422 kts | 76° |
| 2026-05-06 14:30 | 52.01454 | 1.82692 | 24973 ft | 422 kts | 76° |
| 2026-05-06 14:31 | 52.02154 | 1.87326 | 24975 ft | 422 kts | 76° |
| 2026-05-06 14:31 | 52.02855 | 1.91963 | 24977 ft | 422 kts | 76° |
| 2026-05-06 14:31 | 52.03560 | 1.96589 | 24977 ft | 422 kts | 76° |
| 2026-05-06 14:31 | 52.04269 | 2.01220 | 24970 ft | 423 kts | 76° |
| 2026-05-06 14:32 | 52.04984 | 2.05861 | 24966 ft | 423 kts | 76° |
| 2026-05-06 14:32 | 52.05698 | 2.10504 | 24964 ft | 424 kts | 76° |
| 2026-05-06 14:32 | 52.06410 | 2.15156 | 24967 ft | 424 kts | 77° |
| 2026-05-06 14:32 | 52.07118 | 2.19808 | 24964 ft | 424 kts | 77° |
| 2026-05-06 14:33 | 52.07822 | 2.24461 | 24963 ft | 424 kts | 77° |
| 2026-05-06 14:33 | 52.08524 | 2.29122 | 24964 ft | 424 kts | 77° |
| 2026-05-06 14:33 | 52.09224 | 2.33786 | 24948 ft | 426 kts | 77° |
| 2026-05-06 14:33 | 52.09918 | 2.38414 | 24772 ft | 426 kts | 77° |
| 2026-05-06 14:34 | 52.10619 | 2.43099 | 24133 ft | 427 kts | 77° |
| 2026-05-06 14:34 | 52.11412 | 2.47754 | 23588 ft | 424 kts | 70° |
| 2026-05-06 14:34 | 52.12632 | 2.52064 | 22640 ft | 417 kts | 59° |
| 2026-05-06 14:34 | 52.14096 | 2.56027 | 22243 ft | 400 kts | 59° |
| 2026-05-06 14:35 | 52.15510 | 2.59879 | 21891 ft | 394 kts | 59° |
| 2026-05-06 14:35 | 52.16901 | 2.63713 | 21537 ft | 392 kts | 59° |
| 2026-05-06 14:35 | 52.18275 | 2.67525 | 21177 ft | 388 kts | 59° |
| 2026-05-06 14:35 | 52.19633 | 2.71307 | 20825 ft | 386 kts | 59° |
| 2026-05-06 14:36 | 52.20982 | 2.75070 | 20476 ft | 383 kts | 59° |
| 2026-05-06 14:36 | 52.22324 | 2.78812 | 20125 ft | 381 kts | 59° |
| 2026-05-06 14:36 | 52.23662 | 2.82531 | 19766 ft | 379 kts | 59° |
| 2026-05-06 14:36 | 52.24991 | 2.86227 | 19454 ft | 377 kts | 59° |
| 2026-05-06 14:37 | 52.26312 | 2.89915 | 19094 ft | 376 kts | 59° |
| 2026-05-06 14:37 | 52.27625 | 2.93587 | 18746 ft | 373 kts | 59° |
| 2026-05-06 14:37 | 52.28935 | 2.97249 | 18399 ft | 372 kts | 59° |
| 2026-05-06 14:37 | 52.30232 | 3.00879 | 18041 ft | 368 kts | 58° |
| 2026-05-06 14:38 | 52.31516 | 3.04487 | 17698 ft | 367 kts | 59° |
| 2026-05-06 14:38 | 52.32796 | 3.08090 | 17367 ft | 365 kts | 59° |
| 2026-05-06 14:38 | 52.34059 | 3.11656 | 17041 ft | 362 kts | 58° |
| 2026-05-06 14:38 | 52.35323 | 3.15225 | 16711 ft | 361 kts | 59° |
| 2026-05-06 14:39 | 52.36576 | 3.18767 | 16378 ft | 357 kts | 59° |
| 2026-05-06 14:39 | 52.37822 | 3.22291 | 16059 ft | 358 kts | 58° |
| 2026-05-06 14:39 | 52.39063 | 3.25803 | 15725 ft | 354 kts | 58° |
| 2026-05-06 14:39 | 52.40293 | 3.29288 | 15401 ft | 353 kts | 58° |
| 2026-05-06 14:40 | 52.41516 | 3.32764 | 15083 ft | 350 kts | 59° |
| 2026-05-06 14:40 | 52.42725 | 3.36205 | 14763 ft | 347 kts | 58° |
| 2026-05-06 14:40 | 52.43935 | 3.39648 | 14440 ft | 347 kts | 59° |
| 2026-05-06 14:40 | 52.44923 | 3.43226 | 14129 ft | 344 kts | 70° |
| 2026-05-06 14:41 | 52.45510 | 3.47024 | 13815 ft | 345 kts | 76° |
| 2026-05-06 14:41 | 52.46054 | 3.50841 | 13469 ft | 341 kts | 76° |
| 2026-05-06 14:41 | 52.46593 | 3.54605 | 13165 ft | 338 kts | 76° |
| 2026-05-06 14:41 | 52.47129 | 3.58348 | 12857 ft | 337 kts | 76° |
| 2026-05-06 14:42 | 52.47661 | 3.62072 | 12545 ft | 333 kts | 76° |
| 2026-05-06 14:42 | 52.48178 | 3.65712 | 12245 ft | 331 kts | 76° |
| 2026-05-06 14:42 | 52.48701 | 3.69389 | 11945 ft | 330 kts | 76° |
| 2026-05-06 14:42 | 52.49220 | 3.73041 | 11640 ft | 327 kts | 75° |
| 2026-05-06 14:43 | 52.49734 | 3.76662 | 11354 ft | 325 kts | 75° |
| 2026-05-06 14:43 | 52.50246 | 3.80275 | 11039 ft | 323 kts | 76° |
| 2026-05-06 14:43 | 52.50748 | 3.83849 | 10746 ft | 320 kts | 76° |
| 2026-05-06 14:43 | 52.51242 | 3.87406 | 10463 ft | 319 kts | 75° |
| 2026-05-06 14:44 | 52.51734 | 3.90937 | 10160 ft | 315 kts | 76° |
| 2026-05-06 14:44 | 52.52145 | 3.94403 | 10040 ft | 305 kts | 83° |
| 2026-05-06 14:44 | 52.52087 | 3.97806 | 9726 ft | 295 kts | 98° |
| 2026-05-06 14:45 | 52.50754 | 4.04095 | 9408 ft | 290 kts | 110° |
| 2026-05-06 14:45 | 52.50009 | 4.07155 | 9130 ft | 287 kts | 110° |
| 2026-05-06 14:45 | 52.49271 | 4.10189 | 8855 ft | 285 kts | 110° |
| 2026-05-06 14:45 | 52.48535 | 4.13196 | 8580 ft | 283 kts | 109° |
| 2026-05-06 14:46 | 52.47802 | 4.16175 | 8303 ft | 280 kts | 109° |
| 2026-05-06 14:46 | 52.47075 | 4.19135 | 8016 ft | 278 kts | 110° |
| 2026-05-06 14:46 | 52.46358 | 4.22063 | 7751 ft | 276 kts | 109° |
| 2026-05-06 14:46 | 52.45644 | 4.24973 | 7484 ft | 274 kts | 109° |
| 2026-05-06 14:47 | 52.44936 | 4.27853 | 7219 ft | 271 kts | 109° |
| 2026-05-06 14:47 | 52.44232 | 4.30705 | 6956 ft | 270 kts | 109° |
| 2026-05-06 14:47 | 52.43517 | 4.33546 | 6693 ft | 269 kts | 114° |
| 2026-05-06 14:47 | 52.42422 | 4.36025 | 6432 ft | 271 kts | 135° |
| 2026-05-06 14:48 | 52.40843 | 4.37710 | 6147 ft | 274 kts | 155° |
| 2026-05-06 14:48 | 52.39006 | 4.38356 | 5864 ft | 276 kts | 178° |
| 2026-05-06 14:48 | 52.37094 | 4.38159 | 5588 ft | 274 kts | 183° |
| 2026-05-06 14:48 | 52.35182 | 4.37902 | 5311 ft | 277 kts | 183° |
| 2026-05-06 14:49 | 52.33266 | 4.37649 | 5035 ft | 276 kts | 182° |
| 2026-05-06 14:49 | 52.31360 | 4.37403 | 4755 ft | 274 kts | 181° |
| 2026-05-06 14:49 | 52.29449 | 4.37160 | 4474 ft | 275 kts | 181° |
| 2026-05-06 14:49 | 52.27556 | 4.37137 | 4098 ft | 272 kts | 167° |
| 2026-05-06 14:50 | 52.25792 | 4.38187 | 3464 ft | 274 kts | 142° |
| 2026-05-06 14:50 | 52.24463 | 4.40361 | 3023 ft | 266 kts | 117° |
| 2026-05-06 14:50 | 52.23801 | 4.43060 | 2931 ft | 249 kts | 99° |
| 2026-05-06 14:50 | 52.23450 | 4.45766 | 2832 ft | 239 kts | 98° |
| 2026-05-06 14:51 | 52.23113 | 4.48365 | 2733 ft | 227 kts | 98° |
| 2026-05-06 14:51 | 52.22802 | 4.50769 | 2645 ft | 208 kts | 98° |
| 2026-05-06 14:51 | 52.22510 | 4.53047 | 2567 ft | 202 kts | 97° |
| 2026-05-06 14:51 | 52.22307 | 4.55197 | 2484 ft | 188 kts | 85° |
| 2026-05-06 14:52 | 52.22571 | 4.57218 | 2342 ft | 181 kts | 63° |
| 2026-05-06 14:52 | 52.23208 | 4.58961 | 2126 ft | 178 kts | 56° |
| 2026-05-06 14:52 | 52.23853 | 4.60620 | 1906 ft | 171 kts | 55° |
| 2026-05-06 14:52 | 52.24471 | 4.62214 | 1651 ft | 160 kts | 56° |
| 2026-05-06 14:53 | 52.25034 | 4.63672 | 1449 ft | 145 kts | 56° |
| 2026-05-06 14:53 | 52.25551 | 4.65010 | 1283 ft | 136 kts | 56° |
| 2026-05-06 14:53 | 52.26043 | 4.66284 | 1083 ft | 132 kts | 55° |
| 2026-05-06 14:53 | 52.26531 | 4.67549 | 898 ft | 132 kts | 55° |
| 2026-05-06 14:54 | 52.27010 | 4.68823 | 742 ft | 132 kts | 55° |
| 2026-05-06 14:54 | 52.27506 | 4.70077 | 567 ft | 133 kts | 56° |
| 2026-05-06 14:54 | 52.28005 | 4.71342 | 364 ft | 130 kts | 55° |
| 2026-05-06 14:54 | 52.28476 | 4.72593 | 220 ft | 131 kts | 57° |
| 2026-05-06 14:55 | 52.28962 | 4.73850 | 34 ft | 130 kts | 58° |
| 2026-05-06 14:55 | 52.29400 | 4.74995 | -3 ft | 98 kts | 59° |
| 2026-05-06 14:55 | 52.29673 | 4.75707 | -3 ft | 53 kts | 57° |
| 2026-05-06 14:55 | 52.29860 | 4.76193 | -6 ft | 48 kts | 59° |
| 2026-05-06 14:56 | 52.30061 | 4.76565 | -3 ft | 35 kts | 30° |
| 2026-05-06 14:56 | 52.30194 | 4.76679 | -2 ft | 21 kts | 28° |
| 2026-05-06 14:56 | 52.30316 | 4.76832 | -3 ft | 23 kts | 57° |
| 2026-05-06 14:56 | 52.30404 | 4.77056 | -3 ft | 25 kts | 57° |
| 2026-05-06 14:57 | 52.30482 | 4.77271 | -3 ft | 11 kts | 58° |
| 2026-05-06 14:57 | 52.30515 | 4.77336 | -3 ft | 8 kts | 42° |
| 2026-05-06 14:57 | 52.30566 | 4.77320 | -3 ft | 9 kts | 320° |
| 2026-05-06 14:57 | 52.30617 | 4.77261 | -2 ft | 5 kts | 324° |
| 2026-05-06 14:58 | 52.30639 | 4.77207 | -2 ft | 8 kts | 277° |
| 2026-05-06 14:58 | 52.30643 | 4.77088 | -2 ft | 12 kts | 273° |
| 2026-05-06 14:58 | 52.30657 | 4.77025 | -2 ft | 4 kts | 340° |
| 2026-05-06 14:58 | 52.30693 | 4.77024 | -2 ft | 4 kts | 2° |
| 2026-05-06 14:59 | 52.30707 | 4.77025 | -2 ft | 1 kts | 4° |
| 2026-05-06 14:59 | 52.30709 | 4.77025 | -2 ft | 0 kts | 4° |